Terminal Aerodrome Forecast
Issued by NWS Green Bay, WI

Home | Current Version | Previous Version | Text Only | Print | Product List | Glossary On
Versions: 1 2 3 4 5 6 7 8 9 10 11 12 13 14 15 16 17 18 19 20 21 22 23 24 25 26 27 28 29 30
000
FTUS43 KGRB 021435 AAC
TAFGRB
TAF AMD
KGRB 021435Z 0215/0312 25010G20KT 5SM -TSRA SCT015 BKN035CB
     FM021600 24010G20KT P6SM SCT035 BKN250
     FM022200 28010G17KT P6SM SCT040 BKN100
      TEMPO 0222/0224 3SM TSRA BR BKN035CB
     FM030000 34007KT P6SM SCT035=

USA.gov is the U.S. government's official web portal to all federal, state and local government web resources and services.